sensor_id;sensor_type;location;lat;lon;timestamp;temperature;humidity
42201;DHT22;27869;51.442;7.540;2024-02-26T00:02:06;5.40;99.90
42201;DHT22;27869;51.442;7.540;2024-02-26T00:04:34;5.40;99.90
42201;DHT22;27869;51.442;7.540;2024-02-26T00:07:01;5.40;99.90
42201;DHT22;27869;51.442;7.540;2024-02-26T00:09:28;5.40;99.90
42201;DHT22;27869;51.442;7.540;2024-02-26T00:11:55;5.40;99.90
42201;DHT22;27869;51.442;7.540;2024-02-26T00:14:23;5.40;99.90
42201;DHT22;27869;51.442;7.540;2024-02-26T00:16:50;5.40;99.90
42201;DHT22;27869;51.442;7.540;2024-02-26T00:19:17;5.50;99.90
42201;DHT22;27869;51.442;7.540;2024-02-26T00:21:45;5.50;99.90
42201;DHT22;27869;51.442;7.540;2024-02-26T00:24:12;5.40;99.90
42201;DHT22;27869;51.442;7.540;2024-02-26T00:26:39;5.50;99.90
42201;DHT22;27869;51.442;7.540;2024-02-26T00:29:06;5.50;99.90
42201;DHT22;27869;51.442;7.540;2024-02-26T00:31:33;5.50;99.90
42201;DHT22;27869;51.442;7.540;2024-02-26T00:34:00;5.50;99.90
42201;DHT22;27869;51.442;7.540;2024-02-26T00:36:27;5.50;99.90
42201;DHT22;27869;51.442;7.540;2024-02-26T00:38:55;5.50;99.90
42201;DHT22;27869;51.442;7.540;2024-02-26T00:41:22;5.50;99.90
42201;DHT22;27869;51.442;7.540;2024-02-26T00:43:49;5.60;99.90
42201;DHT22;27869;51.442;7.540;2024-02-26T00:46:16;5.50;99.90
42201;DHT22;27869;51.442;7.540;2024-02-26T00:48:43;5.60;99.90
42201;DHT22;27869;51.442;7.540;2024-02-26T00:51:10;5.50;99.90
42201;DHT22;27869;51.442;7.540;2024-02-26T00:53:37;5.60;99.90
42201;DHT22;27869;51.442;7.540;2024-02-26T00:56:05;5.60;99.90
42201;DHT22;27869;51.442;7.540;2024-02-26T00:58:32;5.60;99.90
42201;DHT22;27869;51.442;7.540;2024-02-26T01:00:59;5.60;99.90
42201;DHT22;27869;51.442;7.540;2024-02-26T01:03:26;5.60;99.90
42201;DHT22;27869;51.442;7.540;2024-02-26T01:05:53;5.70;99.90
42201;DHT22;27869;51.442;7.540;2024-02-26T01:08:19;5.60;99.90
42201;DHT22;27869;51.442;7.540;2024-02-26T01:10:46;5.70;99.90
42201;DHT22;27869;51.442;7.540;2024-02-26T01:13:15;5.70;99.90
42201;DHT22;27869;51.442;7.540;2024-02-26T01:15:41;5.70;99.90
42201;DHT22;27869;51.442;7.540;2024-02-26T01:18:09;5.70;99.90
42201;DHT22;27869;51.442;7.540;2024-02-26T01:20:36;5.60;99.90
42201;DHT22;27869;51.442;7.540;2024-02-26T01:23:03;5.60;99.90
42201;DHT22;27869;51.442;7.540;2024-02-26T01:25:30;5.60;99.90
42201;DHT22;27869;51.442;7.540;2024-02-26T01:27:57;5.60;99.90
42201;DHT22;27869;51.442;7.540;2024-02-26T01:30:25;5.60;99.90
42201;DHT22;27869;51.442;7.540;2024-02-26T01:32:52;5.60;99.90
42201;DHT22;27869;51.442;7.540;2024-02-26T01:35:19;5.70;99.90
42201;DHT22;27869;51.442;7.540;2024-02-26T01:37:46;5.60;99.90
42201;DHT22;27869;51.442;7.540;2024-02-26T01:40:12;5.70;99.90
42201;DHT22;27869;51.442;7.540;2024-02-26T01:42:43;5.60;99.90
42201;DHT22;27869;51.442;7.540;2024-02-26T01:45:14;5.60;99.90
42201;DHT22;27869;51.442;7.540;2024-02-26T01:47:49;5.60;99.90
42201;DHT22;27869;51.442;7.540;2024-02-26T01:50:17;5.60;99.90
42201;DHT22;27869;51.442;7.540;2024-02-26T01:52:47;5.60;99.90
42201;DHT22;27869;51.442;7.540;2024-02-26T01:55:14;5.60;99.90
42201;DHT22;27869;51.442;7.540;2024-02-26T01:57:42;5.60;99.90
42201;DHT22;27869;51.442;7.540;2024-02-26T02:00:11;5.60;99.90
42201;DHT22;27869;51.442;7.540;2024-02-26T02:02:38;5.60;99.90
42201;DHT22;27869;51.442;7.540;2024-02-26T02:05:09;5.60;99.90
42201;DHT22;27869;51.442;7.540;2024-02-26T02:07:37;5.60;99.90
42201;DHT22;27869;51.442;7.540;2024-02-26T02:10:05;5.60;99.90
42201;DHT22;27869;51.442;7.540;2024-02-26T02:12:32;5.60;99.90
42201;DHT22;27869;51.442;7.540;2024-02-26T02:15:00;5.60;99.90
42201;DHT22;27869;51.442;7.540;2024-02-26T02:17:27;5.60;99.90
42201;DHT22;27869;51.442;7.540;2024-02-26T02:19:54;5.60;99.90
42201;DHT22;27869;51.442;7.540;2024-02-26T02:22:23;5.60;99.90
42201;DHT22;27869;51.442;7.540;2024-02-26T02:24:51;5.50;99.90
42201;DHT22;27869;51.442;7.540;2024-02-26T02:27:19;5.60;99.90
42201;DHT22;27869;51.442;7.540;2024-02-26T02:29:47;5.60;99.90
42201;DHT22;27869;51.442;7.540;2024-02-26T02:32:15;5.50;99.90
42201;DHT22;27869;51.442;7.540;2024-02-26T02:34:43;5.60;99.90
42201;DHT22;27869;51.442;7.540;2024-02-26T02:37:10;5.60;99.90
42201;DHT22;27869;51.442;7.540;2024-02-26T02:39:38;5.60;99.90
42201;DHT22;27869;51.442;7.540;2024-02-26T02:42:05;5.60;99.90
42201;DHT22;27869;51.442;7.540;2024-02-26T02:44:32;5.50;99.90
42201;DHT22;27869;51.442;7.540;2024-02-26T02:46:59;5.60;99.90
42201;DHT22;27869;51.442;7.540;2024-02-26T02:49:25;5.50;99.90
42201;DHT22;27869;51.442;7.540;2024-02-26T02:51:52;5.50;99.90
42201;DHT22;27869;51.442;7.540;2024-02-26T02:54:20;5.50;99.90
42201;DHT22;27869;51.442;7.540;2024-02-26T02:56:48;5.50;99.90
42201;DHT22;27869;51.442;7.540;2024-02-26T02:59:15;5.50;99.90
42201;DHT22;27869;51.442;7.540;2024-02-26T03:01:42;5.50;99.90
42201;DHT22;27869;51.442;7.540;2024-02-26T03:04:08;5.60;99.90
42201;DHT22;27869;51.442;7.540;2024-02-26T03:06:35;5.60;99.90
42201;DHT22;27869;51.442;7.540;2024-02-26T03:09:03;5.60;99.90
42201;DHT22;27869;51.442;7.540;2024-02-26T03:11:29;5.60;99.90
42201;DHT22;27869;51.442;7.540;2024-02-26T03:13:58;5.60;99.90
42201;DHT22;27869;51.442;7.540;2024-02-26T03:16:25;5.60;99.90
42201;DHT22;27869;51.442;7.540;2024-02-26T03:18:52;5.50;99.90
42201;DHT22;27869;51.442;7.540;2024-02-26T03:21:18;5.50;99.90
42201;DHT22;27869;51.442;7.540;2024-02-26T03:23:46;5.50;99.90
42201;DHT22;27869;51.442;7.540;2024-02-26T03:26:12;5.50;99.90
42201;DHT22;27869;51.442;7.540;2024-02-26T03:28:40;5.50;99.90
42201;DHT22;27869;51.442;7.540;2024-02-26T03:31:08;5.50;99.90
42201;DHT22;27869;51.442;7.540;2024-02-26T03:33:36;5.50;99.90
42201;DHT22;27869;51.442;7.540;2024-02-26T03:36:03;5.50;99.90
42201;DHT22;27869;51.442;7.540;2024-02-26T03:38:30;5.40;99.90
42201;DHT22;27869;51.442;7.540;2024-02-26T03:40:57;5.50;99.90
42201;DHT22;27869;51.442;7.540;2024-02-26T03:43:24;5.40;99.90
42201;DHT22;27869;51.442;7.540;2024-02-26T03:45:51;5.40;99.90
42201;DHT22;27869;51.442;7.540;2024-02-26T03:48:19;5.40;99.90
42201;DHT22;27869;51.442;7.540;2024-02-26T03:50:46;5.30;99.90
42201;DHT22;27869;51.442;7.540;2024-02-26T03:53:13;5.30;99.90
42201;DHT22;27869;51.442;7.540;2024-02-26T03:55:40;5.20;99.90
42201;DHT22;27869;51.442;7.540;2024-02-26T03:58:08;5.20;99.90
42201;DHT22;27869;51.442;7.540;2024-02-26T04:00:35;5.20;99.90
42201;DHT22;27869;51.442;7.540;2024-02-26T04:03:02;5.20;99.90
42201;DHT22;27869;51.442;7.540;2024-02-26T04:05:30;5.10;99.90
42201;DHT22;27869;51.442;7.540;2024-02-26T04:07:57;5.10;99.90
42201;DHT22;27869;51.442;7.540;2024-02-26T04:10:24;5.10;99.90
42201;DHT22;27869;51.442;7.540;2024-02-26T04:12:50;5.10;99.90
42201;DHT22;27869;51.442;7.540;2024-02-26T04:15:17;5.10;99.90
42201;DHT22;27869;51.442;7.540;2024-02-26T04:17:47;5.10;99.90
42201;DHT22;27869;51.442;7.540;2024-02-26T04:20:15;5.10;99.90
42201;DHT22;27869;51.442;7.540;2024-02-26T04:22:44;5.10;99.90
42201;DHT22;27869;51.442;7.540;2024-02-26T04:25:11;5.10;99.90
42201;DHT22;27869;51.442;7.540;2024-02-26T04:27:38;5.10;99.90
42201;DHT22;27869;51.442;7.540;2024-02-26T04:30:06;5.10;99.90
42201;DHT22;27869;51.442;7.540;2024-02-26T04:32:33;5.10;99.90
42201;DHT22;27869;51.442;7.540;2024-02-26T04:35:00;5.10;99.90
42201;DHT22;27869;51.442;7.540;2024-02-26T04:37:27;5.10;99.90
42201;DHT22;27869;51.442;7.540;2024-02-26T04:39:58;5.10;99.90
42201;DHT22;27869;51.442;7.540;2024-02-26T04:42:25;5.10;99.90
42201;DHT22;27869;51.442;7.540;2024-02-26T04:44:52;5.10;99.90
42201;DHT22;27869;51.442;7.540;2024-02-26T04:47:18;5.10;99.90
42201;DHT22;27869;51.442;7.540;2024-02-26T04:49:47;5.10;99.90
42201;DHT22;27869;51.442;7.540;2024-02-26T04:52:14;5.10;99.90
42201;DHT22;27869;51.442;7.540;2024-02-26T04:54:41;5.00;99.90
42201;DHT22;27869;51.442;7.540;2024-02-26T04:57:09;5.00;99.90
42201;DHT22;27869;51.442;7.540;2024-02-26T04:59:36;5.00;99.90
42201;DHT22;27869;51.442;7.540;2024-02-26T05:02:03;5.00;99.90
42201;DHT22;27869;51.442;7.540;2024-02-26T05:04:30;5.00;99.90
42201;DHT22;27869;51.442;7.540;2024-02-26T05:06:57;5.00;99.90
42201;DHT22;27869;51.442;7.540;2024-02-26T05:09:24;5.00;99.90
42201;DHT22;27869;51.442;7.540;2024-02-26T05:11:50;5.00;99.90
42201;DHT22;27869;51.442;7.540;2024-02-26T05:14:19;5.00;99.90
42201;DHT22;27869;51.442;7.540;2024-02-26T05:16:45;5.00;99.90
42201;DHT22;27869;51.442;7.540;2024-02-26T05:19:12;5.00;99.90
42201;DHT22;27869;51.442;7.540;2024-02-26T05:21:39;5.00;99.90
42201;DHT22;27869;51.442;7.540;2024-02-26T05:24:08;5.00;99.90
42201;DHT22;27869;51.442;7.540;2024-02-26T05:26:35;5.00;99.90
42201;DHT22;27869;51.442;7.540;2024-02-26T05:29:02;5.00;99.90
42201;DHT22;27869;51.442;7.540;2024-02-26T05:31:30;4.90;99.90
42201;DHT22;27869;51.442;7.540;2024-02-26T05:33:57;4.90;99.90
42201;DHT22;27869;51.442;7.540;2024-02-26T05:36:24;4.90;99.90
42201;DHT22;27869;51.442;7.540;2024-02-26T05:38:51;4.90;99.90
42201;DHT22;27869;51.442;7.540;2024-02-26T05:41:18;4.90;99.90
42201;DHT22;27869;51.442;7.540;2024-02-26T05:43:48;4.90;99.90
42201;DHT22;27869;51.442;7.540;2024-02-26T05:46:16;4.90;99.90
42201;DHT22;27869;51.442;7.540;2024-02-26T05:48:46;4.90;99.90
42201;DHT22;27869;51.442;7.540;2024-02-26T05:51:13;4.90;99.90
42201;DHT22;27869;51.442;7.540;2024-02-26T05:53:40;4.90;99.90
42201;DHT22;27869;51.442;7.540;2024-02-26T05:56:07;4.80;99.90
42201;DHT22;27869;51.442;7.540;2024-02-26T05:58:34;4.90;99.90
42201;DHT22;27869;51.442;7.540;2024-02-26T06:01:01;4.80;99.90
42201;DHT22;27869;51.442;7.540;2024-02-26T06:03:28;4.80;99.90
42201;DHT22;27869;51.442;7.540;2024-02-26T06:05:56;4.80;99.90
42201;DHT22;27869;51.442;7.540;2024-02-26T06:08:23;4.80;99.90
42201;DHT22;27869;51.442;7.540;2024-02-26T06:10:50;4.80;99.90
42201;DHT22;27869;51.442;7.540;2024-02-26T06:13:17;4.70;99.90
42201;DHT22;27869;51.442;7.540;2024-02-26T06:15:44;4.70;99.90
42201;DHT22;27869;51.442;7.540;2024-02-26T06:18:11;4.70;99.90
42201;DHT22;27869;51.442;7.540;2024-02-26T06:20:37;4.70;99.90
42201;DHT22;27869;51.442;7.540;2024-02-26T06:23:06;4.70;99.90
42201;DHT22;27869;51.442;7.540;2024-02-26T06:25:33;4.70;99.90
42201;DHT22;27869;51.442;7.540;2024-02-26T06:28:00;4.70;99.90
42201;DHT22;27869;51.442;7.540;2024-02-26T06:30:27;4.80;99.90
42201;DHT22;27869;51.442;7.540;2024-02-26T06:32:54;4.70;99.90
42201;DHT22;27869;51.442;7.540;2024-02-26T06:35:21;4.80;99.90
42201;DHT22;27869;51.442;7.540;2024-02-26T06:37:48;4.80;99.90
42201;DHT22;27869;51.442;7.540;2024-02-26T06:40:17;4.80;99.90
42201;DHT22;27869;51.442;7.540;2024-02-26T06:42:44;4.80;99.90
42201;DHT22;27869;51.442;7.540;2024-02-26T06:45:11;4.80;99.90
42201;DHT22;27869;51.442;7.540;2024-02-26T06:47:38;4.80;99.90
42201;DHT22;27869;51.442;7.540;2024-02-26T06:50:05;4.80;99.90
42201;DHT22;27869;51.442;7.540;2024-02-26T06:52:32;4.80;99.90
42201;DHT22;27869;51.442;7.540;2024-02-26T06:54:59;4.80;99.90
42201;DHT22;27869;51.442;7.540;2024-02-26T06:57:27;4.80;99.90
42201;DHT22;27869;51.442;7.540;2024-02-26T06:59:54;4.80;99.90
42201;DHT22;27869;51.442;7.540;2024-02-26T07:02:21;4.80;99.90
42201;DHT22;27869;51.442;7.540;2024-02-26T07:04:47;4.80;99.90
42201;DHT22;27869;51.442;7.540;2024-02-26T07:07:14;4.80;99.90
42201;DHT22;27869;51.442;7.540;2024-02-26T07:09:43;4.80;99.90
42201;DHT22;27869;51.442;7.540;2024-02-26T07:12:10;4.80;99.90
42201;DHT22;27869;51.442;7.540;2024-02-26T07:14:38;4.80;99.90
42201;DHT22;27869;51.442;7.540;2024-02-26T07:17:05;4.80;99.90
42201;DHT22;27869;51.442;7.540;2024-02-26T07:19:32;4.80;99.90
42201;DHT22;27869;51.442;7.540;2024-02-26T07:21:59;4.80;99.90
42201;DHT22;27869;51.442;7.540;2024-02-26T07:24:27;4.80;99.90
42201;DHT22;27869;51.442;7.540;2024-02-26T07:26:54;4.90;99.90
42201;DHT22;27869;51.442;7.540;2024-02-26T07:29:21;4.90;99.90
42201;DHT22;27869;51.442;7.540;2024-02-26T07:31:49;4.90;99.90
42201;DHT22;27869;51.442;7.540;2024-02-26T07:34:16;4.90;99.90
42201;DHT22;27869;51.442;7.540;2024-02-26T07:36:43;4.90;99.90
42201;DHT22;27869;51.442;7.540;2024-02-26T07:39:10;4.90;99.90
42201;DHT22;27869;51.442;7.540;2024-02-26T07:41:37;4.90;99.90
42201;DHT22;27869;51.442;7.540;2024-02-26T07:44:04;5.00;99.90
42201;DHT22;27869;51.442;7.540;2024-02-26T07:46:31;5.00;99.90
42201;DHT22;27869;51.442;7.540;2024-02-26T07:48:59;5.00;99.90
42201;DHT22;27869;51.442;7.540;2024-02-26T07:51:26;5.00;99.90
42201;DHT22;27869;51.442;7.540;2024-02-26T07:53:53;5.00;99.90
42201;DHT22;27869;51.442;7.540;2024-02-26T07:56:20;5.00;99.90
42201;DHT22;27869;51.442;7.540;2024-02-26T07:58:47;5.00;99.90
42201;DHT22;27869;51.442;7.540;2024-02-26T08:01:13;5.00;99.90
42201;DHT22;27869;51.442;7.540;2024-02-26T08:03:41;5.00;99.90
42201;DHT22;27869;51.442;7.540;2024-02-26T08:06:09;5.00;99.90
42201;DHT22;27869;51.442;7.540;2024-02-26T08:08:36;5.00;99.90
42201;DHT22;27869;51.442;7.540;2024-02-26T08:11:03;5.00;99.90
42201;DHT22;27869;51.442;7.540;2024-02-26T08:13:30;5.00;99.90
42201;DHT22;27869;51.442;7.540;2024-02-26T08:15:57;5.00;99.90
42201;DHT22;27869;51.442;7.540;2024-02-26T08:18:25;5.00;99.90
42201;DHT22;27869;51.442;7.540;2024-02-26T08:20:51;5.00;99.90
42201;DHT22;27869;51.442;7.540;2024-02-26T08:23:20;5.00;99.90
42201;DHT22;27869;51.442;7.540;2024-02-26T08:25:46;5.00;99.90
42201;DHT22;27869;51.442;7.540;2024-02-26T08:28:13;5.10;99.90
42201;DHT22;27869;51.442;7.540;2024-02-26T08:30:43;5.10;99.90
42201;DHT22;27869;51.442;7.540;2024-02-26T08:33:10;5.10;99.90
42201;DHT22;27869;51.442;7.540;2024-02-26T08:35:37;5.10;99.90
42201;DHT22;27869;51.442;7.540;2024-02-26T08:38:04;5.10;99.90
42201;DHT22;27869;51.442;7.540;2024-02-26T08:40:32;5.10;99.90
42201;DHT22;27869;51.442;7.540;2024-02-26T08:42:59;5.10;99.90
42201;DHT22;27869;51.442;7.540;2024-02-26T08:45:26;5.10;99.90
42201;DHT22;27869;51.442;7.540;2024-02-26T08:47:53;5.10;99.90
42201;DHT22;27869;51.442;7.540;2024-02-26T08:50:20;5.10;99.90
42201;DHT22;27869;51.442;7.540;2024-02-26T08:52:47;5.20;99.90
42201;DHT22;27869;51.442;7.540;2024-02-26T08:55:16;5.20;99.90
42201;DHT22;27869;51.442;7.540;2024-02-26T08:57:45;5.20;99.90
42201;DHT22;27869;51.442;7.540;2024-02-26T09:00:12;5.20;99.90
42201;DHT22;27869;51.442;7.540;2024-02-26T09:02:41;5.20;99.90
42201;DHT22;27869;51.442;7.540;2024-02-26T09:05:09;5.20;99.90
42201;DHT22;27869;51.442;7.540;2024-02-26T09:07:36;5.20;99.90
42201;DHT22;27869;51.442;7.540;2024-02-26T09:10:04;5.20;99.90
42201;DHT22;27869;51.442;7.540;2024-02-26T09:12:31;5.30;99.90
42201;DHT22;27869;51.442;7.540;2024-02-26T09:14:59;5.20;99.90
42201;DHT22;27869;51.442;7.540;2024-02-26T09:17:26;5.30;99.90
42201;DHT22;27869;51.442;7.540;2024-02-26T09:19:53;5.30;99.90
42201;DHT22;27869;51.442;7.540;2024-02-26T09:22:20;5.30;99.90
42201;DHT22;27869;51.442;7.540;2024-02-26T09:24:47;5.30;99.90
42201;DHT22;27869;51.442;7.540;2024-02-26T09:27:15;5.30;99.90
42201;DHT22;27869;51.442;7.540;2024-02-26T09:29:42;5.30;99.90
42201;DHT22;27869;51.442;7.540;2024-02-26T09:32:11;5.40;99.90
42201;DHT22;27869;51.442;7.540;2024-02-26T09:34:40;5.40;99.90
42201;DHT22;27869;51.442;7.540;2024-02-26T09:37:06;5.40;99.90
42201;DHT22;27869;51.442;7.540;2024-02-26T09:39:33;5.40;99.90
42201;DHT22;27869;51.442;7.540;2024-02-26T09:42:01;5.40;99.90
42201;DHT22;27869;51.442;7.540;2024-02-26T09:44:29;5.40;99.90
42201;DHT22;27869;51.442;7.540;2024-02-26T09:46:59;5.40;99.90
42201;DHT22;27869;51.442;7.540;2024-02-26T09:49:27;5.50;99.90
42201;DHT22;27869;51.442;7.540;2024-02-26T09:51:55;5.50;99.90
42201;DHT22;27869;51.442;7.540;2024-02-26T09:54:24;5.50;99.90
42201;DHT22;27869;51.442;7.540;2024-02-26T09:56:53;5.50;99.90
42201;DHT22;27869;51.442;7.540;2024-02-26T09:59:22;5.50;99.90
42201;DHT22;27869;51.442;7.540;2024-02-26T10:01:50;5.50;99.90
42201;DHT22;27869;51.442;7.540;2024-02-26T10:04:18;5.60;99.90
42201;DHT22;27869;51.442;7.540;2024-02-26T10:06:47;5.60;99.90
42201;DHT22;27869;51.442;7.540;2024-02-26T10:09:15;5.60;99.90
42201;DHT22;27869;51.442;7.540;2024-02-26T10:11:43;5.70;99.90
42201;DHT22;27869;51.442;7.540;2024-02-26T10:14:10;5.70;99.90
42201;DHT22;27869;51.442;7.540;2024-02-26T10:16:37;5.70;99.90
42201;DHT22;27869;51.442;7.540;2024-02-26T10:19:04;5.80;99.90
42201;DHT22;27869;51.442;7.540;2024-02-26T10:21:31;5.80;99.90
42201;DHT22;27869;51.442;7.540;2024-02-26T10:23:59;5.80;99.90
42201;DHT22;27869;51.442;7.540;2024-02-26T10:26:26;5.80;99.90
42201;DHT22;27869;51.442;7.540;2024-02-26T10:28:53;5.90;99.90
42201;DHT22;27869;51.442;7.540;2024-02-26T10:31:25;5.90;99.90
42201;DHT22;27869;51.442;7.540;2024-02-26T10:33:55;5.90;99.90
42201;DHT22;27869;51.442;7.540;2024-02-26T10:36:22;5.90;99.90
42201;DHT22;27869;51.442;7.540;2024-02-26T10:38:49;6.00;99.90
42201;DHT22;27869;51.442;7.540;2024-02-26T10:41:17;6.00;99.90
42201;DHT22;27869;51.442;7.540;2024-02-26T10:43:44;6.00;99.90
42201;DHT22;27869;51.442;7.540;2024-02-26T10:46:11;6.00;99.90
42201;DHT22;27869;51.442;7.540;2024-02-26T10:48:38;6.10;99.90
42201;DHT22;27869;51.442;7.540;2024-02-26T10:51:05;6.10;99.90
42201;DHT22;27869;51.442;7.540;2024-02-26T10:53:33;6.10;99.90
42201;DHT22;27869;51.442;7.540;2024-02-26T10:56:04;6.20;99.90
42201;DHT22;27869;51.442;7.540;2024-02-26T10:58:33;6.20;99.90
42201;DHT22;27869;51.442;7.540;2024-02-26T11:01:01;6.20;99.90
42201;DHT22;27869;51.442;7.540;2024-02-26T11:03:28;6.30;99.90
42201;DHT22;27869;51.442;7.540;2024-02-26T11:05:58;6.30;99.90
42201;DHT22;27869;51.442;7.540;2024-02-26T11:08:26;6.40;99.90
42201;DHT22;27869;51.442;7.540;2024-02-26T11:10:53;6.40;99.90
42201;DHT22;27869;51.442;7.540;2024-02-26T11:13:22;6.40;99.90
42201;DHT22;27869;51.442;7.540;2024-02-26T11:15:53;6.50;99.90
42201;DHT22;27869;51.442;7.540;2024-02-26T11:18:20;6.50;99.90
42201;DHT22;27869;51.442;7.540;2024-02-26T11:20:49;6.60;99.90
42201;DHT22;27869;51.442;7.540;2024-02-26T11:23:17;6.60;99.90
42201;DHT22;27869;51.442;7.540;2024-02-26T11:25:44;6.60;99.90
42201;DHT22;27869;51.442;7.540;2024-02-26T11:28:13;6.70;99.90
42201;DHT22;27869;51.442;7.540;2024-02-26T11:30:44;6.70;99.90
42201;DHT22;27869;51.442;7.540;2024-02-26T11:33:14;6.70;99.90
42201;DHT22;27869;51.442;7.540;2024-02-26T11:35:41;6.70;99.90
42201;DHT22;27869;51.442;7.540;2024-02-26T11:38:08;6.80;99.90
42201;DHT22;27869;51.442;7.540;2024-02-26T11:40:43;6.80;99.90
42201;DHT22;27869;51.442;7.540;2024-02-26T11:43:10;6.80;99.90
42201;DHT22;27869;51.442;7.540;2024-02-26T11:45:50;6.80;99.90
42201;DHT22;27869;51.442;7.540;2024-02-26T11:48:23;6.90;99.90
42201;DHT22;27869;51.442;7.540;2024-02-26T11:50:51;6.90;99.90
42201;DHT22;27869;51.442;7.540;2024-02-26T11:53:25;6.90;99.90
42201;DHT22;27869;51.442;7.540;2024-02-26T11:56:21;7.00;99.90
42201;DHT22;27869;51.442;7.540;2024-02-26T11:58:48;7.00;99.90
42201;DHT22;27869;51.442;7.540;2024-02-26T12:01:53;7.10;99.90
42201;DHT22;27869;51.442;7.540;2024-02-26T12:04:24;7.10;99.90
42201;DHT22;27869;51.442;7.540;2024-02-26T12:06:53;7.20;99.90
42201;DHT22;27869;51.442;7.540;2024-02-26T12:09:33;7.20;99.90
42201;DHT22;27869;51.442;7.540;2024-02-26T12:12:02;7.30;99.90
42201;DHT22;27869;51.442;7.540;2024-02-26T12:14:29;7.30;99.90
42201;DHT22;27869;51.442;7.540;2024-02-26T12:16:56;7.40;99.90
42201;DHT22;27869;51.442;7.540;2024-02-26T12:19:25;7.50;99.90
42201;DHT22;27869;51.442;7.540;2024-02-26T12:21:54;7.50;99.90
42201;DHT22;27869;51.442;7.540;2024-02-26T12:24:21;7.50;99.90
42201;DHT22;27869;51.442;7.540;2024-02-26T12:26:48;7.60;99.90
42201;DHT22;27869;51.442;7.540;2024-02-26T12:29:15;7.60;99.90
42201;DHT22;27869;51.442;7.540;2024-02-26T12:31:43;7.60;99.90
42201;DHT22;27869;51.442;7.540;2024-02-26T12:34:10;7.60;99.90
42201;DHT22;27869;51.442;7.540;2024-02-26T12:36:38;7.50;99.90
42201;DHT22;27869;51.442;7.540;2024-02-26T12:39:06;7.60;99.90
42201;DHT22;27869;51.442;7.540;2024-02-26T12:41:35;7.60;99.90
42201;DHT22;27869;51.442;7.540;2024-02-26T12:44:02;7.60;99.90
42201;DHT22;27869;51.442;7.540;2024-02-26T12:46:29;7.60;99.90
42201;DHT22;27869;51.442;7.540;2024-02-26T12:48:58;7.60;99.90
42201;DHT22;27869;51.442;7.540;2024-02-26T12:51:25;7.60;99.90
42201;DHT22;27869;51.442;7.540;2024-02-26T12:53:55;7.60;99.90
42201;DHT22;27869;51.442;7.540;2024-02-26T12:56:23;7.60;99.90
42201;DHT22;27869;51.442;7.540;2024-02-26T12:58:51;7.60;99.90
42201;DHT22;27869;51.442;7.540;2024-02-26T13:01:21;7.70;99.90
42201;DHT22;27869;51.442;7.540;2024-02-26T13:03:49;7.70;99.90
42201;DHT22;27869;51.442;7.540;2024-02-26T13:06:16;7.70;99.90
42201;DHT22;27869;51.442;7.540;2024-02-26T13:08:43;7.70;99.90
42201;DHT22;27869;51.442;7.540;2024-02-26T13:11:12;7.70;99.90
42201;DHT22;27869;51.442;7.540;2024-02-26T13:13:39;7.70;99.90
42201;DHT22;27869;51.442;7.540;2024-02-26T13:16:07;7.70;99.90
42201;DHT22;27869;51.442;7.540;2024-02-26T13:18:34;7.70;99.90
42201;DHT22;27869;51.442;7.540;2024-02-26T13:21:12;7.70;99.90
42201;DHT22;27869;51.442;7.540;2024-02-26T13:23:41;7.70;99.90
42201;DHT22;27869;51.442;7.540;2024-02-26T13:26:09;7.70;99.90
42201;DHT22;27869;51.442;7.540;2024-02-26T13:28:39;7.70;99.90
42201;DHT22;27869;51.442;7.540;2024-02-26T13:31:06;7.70;99.90
42201;DHT22;27869;51.442;7.540;2024-02-26T13:33:34;7.80;99.90
42201;DHT22;27869;51.442;7.540;2024-02-26T13:36:02;7.80;99.90
42201;DHT22;27869;51.442;7.540;2024-02-26T13:38:32;7.80;99.90
42201;DHT22;27869;51.442;7.540;2024-02-26T13:40:59;7.80;99.90
42201;DHT22;27869;51.442;7.540;2024-02-26T13:43:26;7.80;99.90
42201;DHT22;27869;51.442;7.540;2024-02-26T13:45:55;7.80;99.90
42201;DHT22;27869;51.442;7.540;2024-02-26T13:48:21;7.80;99.90
42201;DHT22;27869;51.442;7.540;2024-02-26T13:50:48;7.80;99.90
42201;DHT22;27869;51.442;7.540;2024-02-26T13:53:15;7.80;99.90
42201;DHT22;27869;51.442;7.540;2024-02-26T13:55:42;7.80;99.90
42201;DHT22;27869;51.442;7.540;2024-02-26T13:58:12;7.90;99.90
42201;DHT22;27869;51.442;7.540;2024-02-26T14:00:39;7.90;99.90
42201;DHT22;27869;51.442;7.540;2024-02-26T14:03:08;7.90;99.90
42201;DHT22;27869;51.442;7.540;2024-02-26T14:05:35;7.90;99.90
42201;DHT22;27869;51.442;7.540;2024-02-26T14:08:02;7.90;99.90
42201;DHT22;27869;51.442;7.540;2024-02-26T14:10:29;7.90;99.90
42201;DHT22;27869;51.442;7.540;2024-02-26T14:12:57;7.90;99.90
42201;DHT22;27869;51.442;7.540;2024-02-26T14:15:24;7.90;99.90
42201;DHT22;27869;51.442;7.540;2024-02-26T14:17:51;7.90;99.90
42201;DHT22;27869;51.442;7.540;2024-02-26T14:20:23;7.90;99.90
42201;DHT22;27869;51.442;7.540;2024-02-26T14:22:50;8.00;99.90
42201;DHT22;27869;51.442;7.540;2024-02-26T14:25:18;8.10;99.90
42201;DHT22;27869;51.442;7.540;2024-02-26T14:27:46;8.10;99.90
42201;DHT22;27869;51.442;7.540;2024-02-26T14:30:15;8.10;99.90
42201;DHT22;27869;51.442;7.540;2024-02-26T14:32:42;8.20;99.90
42201;DHT22;27869;51.442;7.540;2024-02-26T14:35:09;8.20;99.90
42201;DHT22;27869;51.442;7.540;2024-02-26T14:37:37;8.30;99.90
42201;DHT22;27869;51.442;7.540;2024-02-26T14:40:05;8.30;99.90
42201;DHT22;27869;51.442;7.540;2024-02-26T14:42:33;8.30;99.90
42201;DHT22;27869;51.442;7.540;2024-02-26T14:45:00;8.30;99.90
42201;DHT22;27869;51.442;7.540;2024-02-26T14:47:27;8.30;99.90
42201;DHT22;27869;51.442;7.540;2024-02-26T14:49:54;8.30;99.90
42201;DHT22;27869;51.442;7.540;2024-02-26T14:52:22;8.30;99.90
42201;DHT22;27869;51.442;7.540;2024-02-26T14:54:50;8.30;99.90
42201;DHT22;27869;51.442;7.540;2024-02-26T14:57:17;8.30;99.90
42201;DHT22;27869;51.442;7.540;2024-02-26T14:59:44;8.30;99.90
42201;DHT22;27869;51.442;7.540;2024-02-26T15:02:11;8.30;99.90
42201;DHT22;27869;51.442;7.540;2024-02-26T15:04:38;8.30;99.90
42201;DHT22;27869;51.442;7.540;2024-02-26T15:07:05;8.40;99.90
42201;DHT22;27869;51.442;7.540;2024-02-26T15:09:32;8.40;99.90
42201;DHT22;27869;51.442;7.540;2024-02-26T15:12:01;8.40;99.90
42201;DHT22;27869;51.442;7.540;2024-02-26T15:14:30;8.40;99.90
42201;DHT22;27869;51.442;7.540;2024-02-26T15:16:57;8.40;99.90
42201;DHT22;27869;51.442;7.540;2024-02-26T15:19:24;8.40;99.90
42201;DHT22;27869;51.442;7.540;2024-02-26T15:21:52;8.40;99.90
42201;DHT22;27869;51.442;7.540;2024-02-26T15:24:18;8.40;99.90
42201;DHT22;27869;51.442;7.540;2024-02-26T15:26:45;8.40;99.90
42201;DHT22;27869;51.442;7.540;2024-02-26T15:29:14;8.40;99.90
42201;DHT22;27869;51.442;7.540;2024-02-26T15:31:40;8.40;99.90
42201;DHT22;27869;51.442;7.540;2024-02-26T15:34:07;8.30;99.90
42201;DHT22;27869;51.442;7.540;2024-02-26T15:36:35;8.30;99.90
42201;DHT22;27869;51.442;7.540;2024-02-26T15:39:02;8.30;99.90
42201;DHT22;27869;51.442;7.540;2024-02-26T15:41:30;8.30;99.90
42201;DHT22;27869;51.442;7.540;2024-02-26T15:43:57;8.30;99.90
42201;DHT22;27869;51.442;7.540;2024-02-26T15:46:27;8.30;99.90
42201;DHT22;27869;51.442;7.540;2024-02-26T15:48:54;8.20;99.90